sensor_id;sensor_type;location;lat;lon;timestamp;pressure;altitude;pressure_sealevel;temperature
74539;BMP180;66042;51.090;-115.340;2023-12-22T00:02:03;86206.20;;;6.60
74539;BMP180;66042;51.090;-115.340;2023-12-22T00:04:29;86204.40;;;6.60
74539;BMP180;66042;51.090;-115.340;2023-12-22T00:06:56;86204.00;;;6.60
74539;BMP180;66042;51.090;-115.340;2023-12-22T00:09:23;86200.40;;;6.60
74539;BMP180;66042;51.090;-115.340;2023-12-22T00:11:49;86205.40;;;6.60
74539;BMP180;66042;51.090;-115.340;2023-12-22T00:14:16;86209.40;;;6.60
74539;BMP180;66042;51.090;-115.340;2023-12-22T00:16:42;86200.80;;;6.60
74539;BMP180;66042;51.090;-115.340;2023-12-22T00:19:09;86196.60;;;6.60
74539;BMP180;66042;51.090;-115.340;2023-12-22T00:21:35;86199.20;;;6.68
74539;BMP180;66042;51.090;-115.340;2023-12-22T00:24:02;86208.20;;;6.64
74539;BMP180;66042;51.090;-115.340;2023-12-22T00:26:29;86210.00;;;6.70
74539;BMP180;66042;51.090;-115.340;2023-12-22T00:28:55;86206.60;;;6.70
74539;BMP180;66042;51.090;-115.340;2023-12-22T00:31:22;86207.00;;;6.70
74539;BMP180;66042;51.090;-115.340;2023-12-22T00:33:48;86219.80;;;6.70
74539;BMP180;66042;51.090;-115.340;2023-12-22T00:36:15;86229.60;;;6.70
74539;BMP180;66042;51.090;-115.340;2023-12-22T00:38:43;86224.00;;;6.70
74539;BMP180;66042;51.090;-115.340;2023-12-22T00:41:10;86218.00;;;6.70
74539;BMP180;66042;51.090;-115.340;2023-12-22T00:43:37;86210.00;;;6.60
74539;BMP180;66042;51.090;-115.340;2023-12-22T00:46:04;86216.80;;;6.60
74539;BMP180;66042;51.090;-115.340;2023-12-22T00:48:30;86214.80;;;6.60
74539;BMP180;66042;51.090;-115.340;2023-12-22T00:50:57;86210.40;;;6.60
74539;BMP180;66042;51.090;-115.340;2023-12-22T00:53:23;86213.80;;;6.50
74539;BMP180;66042;51.090;-115.340;2023-12-22T00:55:50;86194.40;;;6.40
74539;BMP180;66042;51.090;-115.340;2023-12-22T00:58:16;86203.20;;;6.34
74539;BMP180;66042;51.090;-115.340;2023-12-22T01:00:43;86200.20;;;6.30
74539;BMP180;66042;51.090;-115.340;2023-12-22T01:03:09;86202.60;;;6.20
74539;BMP180;66042;51.090;-115.340;2023-12-22T01:05:37;86207.20;;;6.20
74539;BMP180;66042;51.090;-115.340;2023-12-22T01:08:04;86208.00;;;6.20
74539;BMP180;66042;51.090;-115.340;2023-12-22T01:10:31;86211.60;;;6.20
74539;BMP180;66042;51.090;-115.340;2023-12-22T01:12:58;86215.00;;;6.20
74539;BMP180;66042;51.090;-115.340;2023-12-22T01:15:25;86218.00;;;6.20
74539;BMP180;66042;51.090;-115.340;2023-12-22T01:17:52;86222.60;;;6.20
74539;BMP180;66042;51.090;-115.340;2023-12-22T01:20:19;86224.20;;;6.20
74539;BMP180;66042;51.090;-115.340;2023-12-22T01:22:45;86219.00;;;6.20
74539;BMP180;66042;51.090;-115.340;2023-12-22T01:25:12;86215.00;;;6.20
74539;BMP180;66042;51.090;-115.340;2023-12-22T01:27:39;86209.20;;;6.10
74539;BMP180;66042;51.090;-115.340;2023-12-22T01:30:07;86198.20;;;6.10
74539;BMP180;66042;51.090;-115.340;2023-12-22T01:32:34;86200.20;;;6.00
74539;BMP180;66042;51.090;-115.340;2023-12-22T01:35:03;86192.00;;;5.90
74539;BMP180;66042;51.090;-115.340;2023-12-22T01:37:37;86203.60;;;5.90
74539;BMP180;66042;51.090;-115.340;2023-12-22T01:40:04;86210.40;;;5.90
74539;BMP180;66042;51.090;-115.340;2023-12-22T01:42:31;86210.40;;;5.90
74539;BMP180;66042;51.090;-115.340;2023-12-22T01:44:59;86210.80;;;5.90
74539;BMP180;66042;51.090;-115.340;2023-12-22T01:47:26;86206.00;;;5.90
74539;BMP180;66042;51.090;-115.340;2023-12-22T01:49:54;86209.60;;;5.86
74539;BMP180;66042;51.090;-115.340;2023-12-22T01:52:21;86195.40;;;5.80
74539;BMP180;66042;51.090;-115.340;2023-12-22T01:54:49;86197.60;;;5.70
74539;BMP180;66042;51.090;-115.340;2023-12-22T01:57:18;86205.20;;;5.68
74539;BMP180;66042;51.090;-115.340;2023-12-22T01:59:48;86198.20;;;5.60
74539;BMP180;66042;51.090;-115.340;2023-12-22T02:02:16;86193.40;;;5.60
74539;BMP180;66042;51.090;-115.340;2023-12-22T02:04:43;86185.00;;;5.60
74539;BMP180;66042;51.090;-115.340;2023-12-22T02:07:12;86186.00;;;5.50
74539;BMP180;66042;51.090;-115.340;2023-12-22T02:09:39;86183.60;;;5.40
74539;BMP180;66042;51.090;-115.340;2023-12-22T02:12:06;86185.60;;;5.30
74539;BMP180;66042;51.090;-115.340;2023-12-22T02:14:33;86187.20;;;5.30
74539;BMP180;66042;51.090;-115.340;2023-12-22T02:20:13;86184.20;;;5.20
74539;BMP180;66042;51.090;-115.340;2023-12-22T02:22:40;86180.00;;;5.20
74539;BMP180;66042;51.090;-115.340;2023-12-22T02:25:07;86188.40;;;5.20
74539;BMP180;66042;51.090;-115.340;2023-12-22T02:27:50;86181.40;;;5.20
74539;BMP180;66042;51.090;-115.340;2023-12-22T02:33:05;86189.20;;;5.30
74539;BMP180;66042;51.090;-115.340;2023-12-22T02:35:37;86188.60;;;5.28
74539;BMP180;66042;51.090;-115.340;2023-12-22T02:38:08;86188.80;;;5.28
74539;BMP180;66042;51.090;-115.340;2023-12-22T02:40:37;86188.60;;;5.30
74539;BMP180;66042;51.090;-115.340;2023-12-22T02:43:05;86194.80;;;5.30
74539;BMP180;66042;51.090;-115.340;2023-12-22T02:45:36;86181.20;;;5.20
74539;BMP180;66042;51.090;-115.340;2023-12-22T02:48:03;86178.20;;;5.20
74539;BMP180;66042;51.090;-115.340;2023-12-22T02:50:30;86182.60;;;5.30
74539;BMP180;66042;51.090;-115.340;2023-12-22T02:52:57;86174.20;;;5.30
74539;BMP180;66042;51.090;-115.340;2023-12-22T02:55:24;86169.80;;;5.30
74539;BMP180;66042;51.090;-115.340;2023-12-22T02:57:51;86168.80;;;5.30
74539;BMP180;66042;51.090;-115.340;2023-12-22T03:00:18;86174.60;;;5.30
74539;BMP180;66042;51.090;-115.340;2023-12-22T03:02:46;86176.20;;;5.20
74539;BMP180;66042;51.090;-115.340;2023-12-22T03:05:13;86165.40;;;5.14
74539;BMP180;66042;51.090;-115.340;2023-12-22T03:07:40;86158.80;;;5.10
74539;BMP180;66042;51.090;-115.340;2023-12-22T03:10:07;86150.60;;;5.10
74539;BMP180;66042;51.090;-115.340;2023-12-22T03:12:34;86146.40;;;5.10
74539;BMP180;66042;51.090;-115.340;2023-12-22T03:15:02;86157.00;;;5.00
74539;BMP180;66042;51.090;-115.340;2023-12-22T03:17:29;86160.40;;;4.90
74539;BMP180;66042;51.090;-115.340;2023-12-22T03:19:56;86153.00;;;4.90
74539;BMP180;66042;51.090;-115.340;2023-12-22T03:22:23;86144.60;;;4.90
74539;BMP180;66042;51.090;-115.340;2023-12-22T03:24:50;86152.00;;;4.90
74539;BMP180;66042;51.090;-115.340;2023-12-22T03:27:17;86153.00;;;4.90
74539;BMP180;66042;51.090;-115.340;2023-12-22T03:29:46;86147.00;;;4.90
74539;BMP180;66042;51.090;-115.340;2023-12-22T03:32:13;86149.80;;;4.90
74539;BMP180;66042;51.090;-115.340;2023-12-22T03:34:40;86142.00;;;4.90
74539;BMP180;66042;51.090;-115.340;2023-12-22T03:37:07;86140.60;;;4.90
74539;BMP180;66042;51.090;-115.340;2023-12-22T03:39:34;86150.20;;;4.90
74539;BMP180;66042;51.090;-115.340;2023-12-22T03:42:01;86136.60;;;4.80
74539;BMP180;66042;51.090;-115.340;2023-12-22T03:44:28;86134.80;;;4.80
74539;BMP180;66042;51.090;-115.340;2023-12-22T03:46:55;86138.40;;;4.80
74539;BMP180;66042;51.090;-115.340;2023-12-22T03:49:22;86145.00;;;4.80
74539;BMP180;66042;51.090;-115.340;2023-12-22T03:51:49;86139.20;;;4.80
74539;BMP180;66042;51.090;-115.340;2023-12-22T03:54:16;86138.80;;;4.74
74539;BMP180;66042;51.090;-115.340;2023-12-22T03:56:44;86140.20;;;4.70
74539;BMP180;66042;51.090;-115.340;2023-12-22T03:59:11;86129.80;;;4.70
74539;BMP180;66042;51.090;-115.340;2023-12-22T04:01:39;86138.00;;;4.70
74539;BMP180;66042;51.090;-115.340;2023-12-22T04:04:06;86134.20;;;4.70
74539;BMP180;66042;51.090;-115.340;2023-12-22T04:06:33;86135.40;;;4.74
74539;BMP180;66042;51.090;-115.340;2023-12-22T04:09:04;86133.40;;;4.80
74539;BMP180;66042;51.090;-115.340;2023-12-22T04:11:32;86137.40;;;4.80
74539;BMP180;66042;51.090;-115.340;2023-12-22T04:14:01;86131.20;;;4.80
74539;BMP180;66042;51.090;-115.340;2023-12-22T04:16:28;86132.20;;;4.80
74539;BMP180;66042;51.090;-115.340;2023-12-22T04:18:55;86129.20;;;4.80
74539;BMP180;66042;51.090;-115.340;2023-12-22T04:21:22;86133.20;;;4.70
74539;BMP180;66042;51.090;-115.340;2023-12-22T04:23:48;86123.40;;;4.74
74539;BMP180;66042;51.090;-115.340;2023-12-22T04:26:15;86118.00;;;4.80
74539;BMP180;66042;51.090;-115.340;2023-12-22T04:28:41;86121.60;;;4.80
74539;BMP180;66042;51.090;-115.340;2023-12-22T04:31:08;86126.80;;;4.80
74539;BMP180;66042;51.090;-115.340;2023-12-22T04:33:34;86114.60;;;4.90
74539;BMP180;66042;51.090;-115.340;2023-12-22T04:36:01;86106.60;;;4.90
74539;BMP180;66042;51.090;-115.340;2023-12-22T04:38:28;86104.60;;;4.90
74539;BMP180;66042;51.090;-115.340;2023-12-22T04:40:54;86099.00;;;4.90
74539;BMP180;66042;51.090;-115.340;2023-12-22T04:43:21;86093.00;;;4.90
74539;BMP180;66042;51.090;-115.340;2023-12-22T04:45:47;86096.00;;;4.92
74539;BMP180;66042;51.090;-115.340;2023-12-22T04:48:14;86099.40;;;4.98
74539;BMP180;66042;51.090;-115.340;2023-12-22T04:50:41;86097.40;;;4.98
74539;BMP180;66042;51.090;-115.340;2023-12-22T04:53:07;86094.40;;;5.00
74539;BMP180;66042;51.090;-115.340;2023-12-22T04:55:34;86093.40;;;5.00
74539;BMP180;66042;51.090;-115.340;2023-12-22T04:58:00;86090.80;;;5.00
74539;BMP180;66042;51.090;-115.340;2023-12-22T05:00:27;86090.20;;;5.00
74539;BMP180;66042;51.090;-115.340;2023-12-22T05:02:54;86093.80;;;5.00
74539;BMP180;66042;51.090;-115.340;2023-12-22T05:05:20;86085.20;;;4.90
74539;BMP180;66042;51.090;-115.340;2023-12-22T05:07:47;86086.60;;;4.90
74539;BMP180;66042;51.090;-115.340;2023-12-22T05:10:13;86090.80;;;4.90
74539;BMP180;66042;51.090;-115.340;2023-12-22T05:12:40;86093.40;;;4.90
74539;BMP180;66042;51.090;-115.340;2023-12-22T05:15:07;86106.20;;;4.90
74539;BMP180;66042;51.090;-115.340;2023-12-22T05:17:34;86096.40;;;4.98
74539;BMP180;66042;51.090;-115.340;2023-12-22T05:20:00;86086.40;;;5.00
74539;BMP180;66042;51.090;-115.340;2023-12-22T05:22:27;86085.00;;;5.00
74539;BMP180;66042;51.090;-115.340;2023-12-22T05:24:58;86087.40;;;5.00
74539;BMP180;66042;51.090;-115.340;2023-12-22T05:27:26;86087.60;;;4.98
74539;BMP180;66042;51.090;-115.340;2023-12-22T05:29:53;86079.80;;;5.00
74539;BMP180;66042;51.090;-115.340;2023-12-22T05:32:20;86078.80;;;5.00
74539;BMP180;66042;51.090;-115.340;2023-12-22T05:34:47;86081.60;;;5.00
74539;BMP180;66042;51.090;-115.340;2023-12-22T05:37:13;86080.20;;;5.00
74539;BMP180;66042;51.090;-115.340;2023-12-22T05:39:40;86077.00;;;5.00
74539;BMP180;66042;51.090;-115.340;2023-12-22T05:42:06;86063.80;;;5.02
74539;BMP180;66042;51.090;-115.340;2023-12-22T05:44:33;86066.20;;;5.10
74539;BMP180;66042;51.090;-115.340;2023-12-22T05:47:00;86082.00;;;5.10
74539;BMP180;66042;51.090;-115.340;2023-12-22T05:49:27;86077.80;;;5.10
74539;BMP180;66042;51.090;-115.340;2023-12-22T05:51:53;86079.20;;;5.10
74539;BMP180;66042;51.090;-115.340;2023-12-22T05:54:20;86067.40;;;5.10
74539;BMP180;66042;51.090;-115.340;2023-12-22T05:56:48;86062.60;;;5.10
74539;BMP180;66042;51.090;-115.340;2023-12-22T05:59:18;86048.20;;;5.10
74539;BMP180;66042;51.090;-115.340;2023-12-22T06:01:44;86046.40;;;5.10
74539;BMP180;66042;51.090;-115.340;2023-12-22T06:04:11;86058.20;;;5.18
74539;BMP180;66042;51.090;-115.340;2023-12-22T06:06:38;86064.40;;;5.20
74539;BMP180;66042;51.090;-115.340;2023-12-22T06:09:05;86059.20;;;5.20
74539;BMP180;66042;51.090;-115.340;2023-12-22T06:11:32;86052.00;;;5.20
74539;BMP180;66042;51.090;-115.340;2023-12-22T06:13:59;86046.40;;;5.20
74539;BMP180;66042;51.090;-115.340;2023-12-22T06:16:26;86047.20;;;5.18
74539;BMP180;66042;51.090;-115.340;2023-12-22T06:18:53;86052.20;;;5.10
74539;BMP180;66042;51.090;-115.340;2023-12-22T06:21:20;86058.20;;;5.10
74539;BMP180;66042;51.090;-115.340;2023-12-22T06:23:47;86051.40;;;5.10
74539;BMP180;66042;51.090;-115.340;2023-12-22T06:26:14;86055.40;;;5.10
74539;BMP180;66042;51.090;-115.340;2023-12-22T06:28:41;86048.20;;;5.10
74539;BMP180;66042;51.090;-115.340;2023-12-22T06:31:15;86048.00;;;5.10
74539;BMP180;66042;51.090;-115.340;2023-12-22T06:33:45;86050.60;;;5.10
74539;BMP180;66042;51.090;-115.340;2023-12-22T06:36:25;86048.20;;;5.10
74539;BMP180;66042;51.090;-115.340;2023-12-22T06:38:52;86043.00;;;5.10
74539;BMP180;66042;51.090;-115.340;2023-12-22T06:41:29;86048.60;;;5.04
74539;BMP180;66042;51.090;-115.340;2023-12-22T06:43:57;86041.00;;;5.00
74539;BMP180;66042;51.090;-115.340;2023-12-22T06:46:28;86052.60;;;5.00
74539;BMP180;66042;51.090;-115.340;2023-12-22T06:48:57;86058.80;;;5.00
74539;BMP180;66042;51.090;-115.340;2023-12-22T06:51:29;86055.60;;;5.00
74539;BMP180;66042;51.090;-115.340;2023-12-22T06:53:57;86041.00;;;5.00
74539;BMP180;66042;51.090;-115.340;2023-12-22T06:56:30;86046.20;;;5.00
74539;BMP180;66042;51.090;-115.340;2023-12-22T06:58:58;86056.20;;;5.00
74539;BMP180;66042;51.090;-115.340;2023-12-22T07:01:34;86057.80;;;4.96
74539;BMP180;66042;51.090;-115.340;2023-12-22T07:04:03;86053.40;;;4.90
74539;BMP180;66042;51.090;-115.340;2023-12-22T07:06:35;86045.60;;;4.90
74539;BMP180;66042;51.090;-115.340;2023-12-22T07:11:51;86043.60;;;4.90
74539;BMP180;66042;51.090;-115.340;2023-12-22T07:14:22;86047.00;;;4.82
74539;BMP180;66042;51.090;-115.340;2023-12-22T07:16:48;86048.80;;;4.80
74539;BMP180;66042;51.090;-115.340;2023-12-22T07:19:15;86058.60;;;4.80
74539;BMP180;66042;51.090;-115.340;2023-12-22T07:21:42;86048.80;;;4.80
74539;BMP180;66042;51.090;-115.340;2023-12-22T07:24:08;86049.20;;;4.80
74539;BMP180;66042;51.090;-115.340;2023-12-22T07:26:35;86055.40;;;4.80
74539;BMP180;66042;51.090;-115.340;2023-12-22T07:29:01;86048.20;;;4.80
74539;BMP180;66042;51.090;-115.340;2023-12-22T07:31:28;86046.20;;;4.78
74539;BMP180;66042;51.090;-115.340;2023-12-22T07:33:55;86048.20;;;4.70
74539;BMP180;66042;51.090;-115.340;2023-12-22T07:36:21;86049.40;;;4.70
74539;BMP180;66042;51.090;-115.340;2023-12-22T07:38:48;86053.60;;;4.70
74539;BMP180;66042;51.090;-115.340;2023-12-22T07:41:14;86055.20;;;4.70
74539;BMP180;66042;51.090;-115.340;2023-12-22T07:43:41;86055.80;;;4.70
74539;BMP180;66042;51.090;-115.340;2023-12-22T07:46:08;86055.80;;;4.70
74539;BMP180;66042;51.090;-115.340;2023-12-22T07:48:42;86049.00;;;4.70
74539;BMP180;66042;51.090;-115.340;2023-12-22T07:51:11;86047.40;;;4.70
74539;BMP180;66042;51.090;-115.340;2023-12-22T07:53:38;86048.00;;;4.70
74539;BMP180;66042;51.090;-115.340;2023-12-22T07:56:06;86050.00;;;4.70
74539;BMP180;66042;51.090;-115.340;2023-12-22T07:58:33;86047.00;;;4.70
74539;BMP180;66042;51.090;-115.340;2023-12-22T08:01:00;86043.60;;;4.70
74539;BMP180;66042;51.090;-115.340;2023-12-22T08:03:27;86034.00;;;4.70
74539;BMP180;66042;51.090;-115.340;2023-12-22T08:05:54;86030.00;;;4.70
74539;BMP180;66042;51.090;-115.340;2023-12-22T08:08:22;86037.60;;;4.70
74539;BMP180;66042;51.090;-115.340;2023-12-22T08:10:49;86042.20;;;4.70
74539;BMP180;66042;51.090;-115.340;2023-12-22T08:13:16;86042.80;;;4.70
74539;BMP180;66042;51.090;-115.340;2023-12-22T08:15:44;86043.80;;;4.70
74539;BMP180;66042;51.090;-115.340;2023-12-22T08:18:11;86021.60;;;4.70
74539;BMP180;66042;51.090;-115.340;2023-12-22T08:20:39;86019.60;;;4.64
74539;BMP180;66042;51.090;-115.340;2023-12-22T08:23:05;86023.80;;;4.60
74539;BMP180;66042;51.090;-115.340;2023-12-22T08:25:33;86016.20;;;4.60
74539;BMP180;66042;51.090;-115.340;2023-12-22T08:27:59;86022.20;;;4.60
74539;BMP180;66042;51.090;-115.340;2023-12-22T08:30:27;86012.20;;;4.60
74539;BMP180;66042;51.090;-115.340;2023-12-22T08:32:55;86016.20;;;4.60
74539;BMP180;66042;51.090;-115.340;2023-12-22T08:35:22;86017.60;;;4.60
74539;BMP180;66042;51.090;-115.340;2023-12-22T08:37:49;86017.20;;;4.60
74539;BMP180;66042;51.090;-115.340;2023-12-22T08:40:16;86016.60;;;4.50
74539;BMP180;66042;51.090;-115.340;2023-12-22T08:42:43;86011.40;;;4.50
74539;BMP180;66042;51.090;-115.340;2023-12-22T08:45:10;86010.00;;;4.40
74539;BMP180;66042;51.090;-115.340;2023-12-22T08:47:37;86014.60;;;4.40
74539;BMP180;66042;51.090;-115.340;2023-12-22T08:50:05;85998.20;;;4.40
74539;BMP180;66042;51.090;-115.340;2023-12-22T08:52:34;85995.60;;;4.40
74539;BMP180;66042;51.090;-115.340;2023-12-22T08:55:01;85993.60;;;4.40
74539;BMP180;66042;51.090;-115.340;2023-12-22T08:57:28;85989.60;;;4.40
74539;BMP180;66042;51.090;-115.340;2023-12-22T08:59:55;85992.60;;;4.38
74539;BMP180;66042;51.090;-115.340;2023-12-22T09:02:22;85989.60;;;4.38
74539;BMP180;66042;51.090;-115.340;2023-12-22T09:04:49;85985.40;;;4.32
74539;BMP180;66042;51.090;-115.340;2023-12-22T09:07:17;86000.00;;;4.30
74539;BMP180;66042;51.090;-115.340;2023-12-22T09:09:45;85988.00;;;4.30
74539;BMP180;66042;51.090;-115.340;2023-12-22T09:12:12;86000.00;;;4.32
74539;BMP180;66042;51.090;-115.340;2023-12-22T09:14:39;85999.00;;;4.32
74539;BMP180;66042;51.090;-115.340;2023-12-22T09:17:06;85993.20;;;4.30
74539;BMP180;66042;51.090;-115.340;2023-12-22T09:19:33;85989.00;;;4.30
74539;BMP180;66042;51.090;-115.340;2023-12-22T09:22:00;85982.40;;;4.30
74539;BMP180;66042;51.090;-115.340;2023-12-22T09:24:27;85982.40;;;4.30
74539;BMP180;66042;51.090;-115.340;2023-12-22T09:26:54;85980.60;;;4.30
74539;BMP180;66042;51.090;-115.340;2023-12-22T09:29:21;85972.00;;;4.30
74539;BMP180;66042;51.090;-115.340;2023-12-22T09:31:48;85969.40;;;4.28
74539;BMP180;66042;51.090;-115.340;2023-12-22T09:34:15;85957.80;;;4.26
74539;BMP180;66042;51.090;-115.340;2023-12-22T09:36:42;85954.20;;;4.26
74539;BMP180;66042;51.090;-115.340;2023-12-22T09:39:09;85963.20;;;4.38
74539;BMP180;66042;51.090;-115.340;2023-12-22T09:41:36;85951.40;;;4.40
74539;BMP180;66042;51.090;-115.340;2023-12-22T09:44:05;85953.00;;;4.40
74539;BMP180;66042;51.090;-115.340;2023-12-22T09:46:34;85956.60;;;4.50
74539;BMP180;66042;51.090;-115.340;2023-12-22T09:49:02;85948.60;;;4.60
74539;BMP180;66042;51.090;-115.340;2023-12-22T09:51:31;85943.80;;;4.60
74539;BMP180;66042;51.090;-115.340;2023-12-22T09:53:59;85952.20;;;4.60
74539;BMP180;66042;51.090;-115.340;2023-12-22T09:56:29;85957.20;;;4.60
74539;BMP180;66042;51.090;-115.340;2023-12-22T09:58:57;85956.40;;;4.60
74539;BMP180;66042;51.090;-115.340;2023-12-22T10:01:25;85951.80;;;4.60
74539;BMP180;66042;51.090;-115.340;2023-12-22T10:03:54;85946.80;;;4.60
74539;BMP180;66042;51.090;-115.340;2023-12-22T10:06:21;85948.20;;;4.60
74539;BMP180;66042;51.090;-115.340;2023-12-22T10:08:49;85947.60;;;4.60
74539;BMP180;66042;51.090;-115.340;2023-12-22T10:11:19;85936.60;;;4.60
74539;BMP180;66042;51.090;-115.340;2023-12-22T10:13:50;85927.20;;;4.60
74539;BMP180;66042;51.090;-115.340;2023-12-22T10:16:19;85940.20;;;4.60
74539;BMP180;66042;51.090;-115.340;2023-12-22T10:18:46;85929.60;;;4.60
74539;BMP180;66042;51.090;-115.340;2023-12-22T10:21:13;85937.20;;;4.58
74539;BMP180;66042;51.090;-115.340;2023-12-22T10:23:40;85933.00;;;4.50
74539;BMP180;66042;51.090;-115.340;2023-12-22T10:26:07;85922.60;;;4.50
74539;BMP180;66042;51.090;-115.340;2023-12-22T10:28:37;85921.80;;;4.40
74539;BMP180;66042;51.090;-115.340;2023-12-22T10:31:04;85924.80;;;4.40
74539;BMP180;66042;51.090;-115.340;2023-12-22T10:33:35;85933.00;;;4.46
74539;BMP180;66042;51.090;-115.340;2023-12-22T10:36:02;85925.00;;;4.50
74539;BMP180;66042;51.090;-115.340;2023-12-22T10:38:36;85933.20;;;4.52
74539;BMP180;66042;51.090;-115.340;2023-12-22T10:41:03;85922.60;;;4.60
74539;BMP180;66042;51.090;-115.340;2023-12-22T10:43:40;85920.00;;;4.60
74539;BMP180;66042;51.090;-115.340;2023-12-22T10:46:10;85922.40;;;4.70
74539;BMP180;66042;51.090;-115.340;2023-12-22T10:48:37;85910.40;;;4.72
74539;BMP180;66042;51.090;-115.340;2023-12-22T10:51:10;85913.60;;;4.80
74539;BMP180;66042;51.090;-115.340;2023-12-22T10:53:41;85907.40;;;4.90
74539;BMP180;66042;51.090;-115.340;2023-12-22T10:56:09;85897.40;;;4.94
74539;BMP180;66042;51.090;-115.340;2023-12-22T10:58:37;85912.20;;;4.94
74539;BMP180;66042;51.090;-115.340;2023-12-22T11:01:07;85915.20;;;4.94
74539;BMP180;66042;51.090;-115.340;2023-12-22T11:03:39;85912.40;;;4.94
74539;BMP180;66042;51.090;-115.340;2023-12-22T11:06:10;85905.00;;;4.90
74539;BMP180;66042;51.090;-115.340;2023-12-22T11:08:38;85903.00;;;4.90
74539;BMP180;66042;51.090;-115.340;2023-12-22T11:11:19;85894.20;;;4.92
74539;BMP180;66042;51.090;-115.340;2023-12-22T11:13:49;85896.20;;;5.00
74539;BMP180;66042;51.090;-115.340;2023-12-22T11:16:18;85888.40;;;5.00
74539;BMP180;66042;51.090;-115.340;2023-12-22T11:18:47;85895.60;;;5.10
74539;BMP180;66042;51.090;-115.340;2023-12-22T11:21:15;85883.00;;;5.20
74539;BMP180;66042;51.090;-115.340;2023-12-22T11:23:44;85885.60;;;5.24
74539;BMP180;66042;51.090;-115.340;2023-12-22T11:26:13;85894.20;;;5.30
74539;BMP180;66042;51.090;-115.340;2023-12-22T11:28:42;85887.20;;;5.30
74539;BMP180;66042;51.090;-115.340;2023-12-22T11:31:12;85884.60;;;5.30
74539;BMP180;66042;51.090;-115.340;2023-12-22T11:33:50;85877.20;;;5.40
74539;BMP180;66042;51.090;-115.340;2023-12-22T11:36:18;85884.00;;;5.40
74539;BMP180;66042;51.090;-115.340;2023-12-22T11:38:46;85878.80;;;5.32
74539;BMP180;66042;51.090;-115.340;2023-12-22T11:41:19;85878.60;;;5.30
74539;BMP180;66042;51.090;-115.340;2023-12-22T11:43:48;85872.80;;;5.20
74539;BMP180;66042;51.090;-115.340;2023-12-22T11:46:19;85870.40;;;5.10
74539;BMP180;66042;51.090;-115.340;2023-12-22T11:48:53;85861.00;;;5.10
74539;BMP180;66042;51.090;-115.340;2023-12-22T11:51:22;85878.60;;;5.10
74539;BMP180;66042;51.090;-115.340;2023-12-22T11:53:49;85871.00;;;5.10
74539;BMP180;66042;51.090;-115.340;2023-12-22T11:56:16;85871.20;;;5.10
74539;BMP180;66042;51.090;-115.340;2023-12-22T11:58:48;85862.40;;;5.10
74539;BMP180;66042;51.090;-115.340;2023-12-22T12:01:23;85856.60;;;5.00
74539;BMP180;66042;51.090;-115.340;2023-12-22T12:03:53;85863.00;;;5.00
74539;BMP180;66042;51.090;-115.340;2023-12-22T12:09:03;85852.60;;;5.00
74539;BMP180;66042;51.090;-115.340;2023-12-22T12:14:32;85832.00;;;5.00
74539;BMP180;66042;51.090;-115.340;2023-12-22T12:17:09;85836.00;;;5.00
74539;BMP180;66042;51.090;-115.340;2023-12-22T12:19:40;85834.00;;;4.90
74539;BMP180;66042;51.090;-115.340;2023-12-22T12:22:08;85843.40;;;4.80
74539;BMP180;66042;51.090;-115.340;2023-12-22T12:24:37;85838.40;;;4.80
74539;BMP180;66042;51.090;-115.340;2023-12-22T12:27:05;85834.40;;;4.70
74539;BMP180;66042;51.090;-115.340;2023-12-22T12:29:35;85837.40;;;4.70
74539;BMP180;66042;51.090;-115.340;2023-12-22T12:32:05;85838.60;;;4.70
74539;BMP180;66042;51.090;-115.340;2023-12-22T12:34:33;85832.80;;;4.60
74539;BMP180;66042;51.090;-115.340;2023-12-22T12:37:01;85841.20;;;4.60
74539;BMP180;66042;51.090;-115.340;2023-12-22T12:39:30;85828.40;;;4.60
74539;BMP180;66042;51.090;-115.340;2023-12-22T12:42:01;85823.20;;;4.50
74539;BMP180;66042;51.090;-115.340;2023-12-22T12:44:30;85820.40;;;4.50
74539;BMP180;66042;51.090;-115.340;2023-12-22T12:46:58;85814.40;;;4.40
74539;BMP180;66042;51.090;-115.340;2023-12-22T12:49:26;85813.60;;;4.40
74539;BMP180;66042;51.090;-115.340;2023-12-22T12:51:57;85809.80;;;4.40
74539;BMP180;66042;51.090;-115.340;2023-12-22T12:54:25;85813.20;;;4.40
74539;BMP180;66042;51.090;-115.340;2023-12-22T12:56:52;85806.60;;;4.40
74539;BMP180;66042;51.090;-115.340;2023-12-22T12:59:19;85800.00;;;4.40
74539;BMP180;66042;51.090;-115.340;2023-12-22T13:01:48;85801.40;;;4.32
74539;BMP180;66042;51.090;-115.340;2023-12-22T13:04:15;85790.20;;;4.30
74539;BMP180;66042;51.090;-115.340;2023-12-22T13:06:52;85784.20;;;4.30
74539;BMP180;66042;51.090;-115.340;2023-12-22T13:09:19;85784.60;;;4.30
74539;BMP180;66042;51.090;-115.340;2023-12-22T13:11:46;85780.00;;;4.30
74539;BMP180;66042;51.090;-115.340;2023-12-22T13:14:24;85779.80;;;4.30
74539;BMP180;66042;51.090;-115.340;2023-12-22T13:16:55;85784.00;;;4.30
74539;BMP180;66042;51.090;-115.340;2023-12-22T13:19:24;85788.80;;;4.30
74539;BMP180;66042;51.090;-115.340;2023-12-22T13:21:53;85778.00;;;4.30
74539;BMP180;66042;51.090;-115.340;2023-12-22T13:24:21;85773.80;;;4.30
74539;BMP180;66042;51.090;-115.340;2023-12-22T13:27:03;85773.00;;;4.20
74539;BMP180;66042;51.090;-115.340;2023-12-22T13:29:46;85774.40;;;4.20
74539;BMP180;66042;51.090;-115.340;2023-12-22T13:32:19;85771.40;;;4.20
74539;BMP180;66042;51.090;-115.340;2023-12-22T13:34:54;85768.60;;;4.20
74539;BMP180;66042;51.090;-115.340;2023-12-22T13:37:21;85771.20;;;4.10
74539;BMP180;66042;51.090;-115.340;2023-12-22T13:39:53;85771.00;;;4.10
74539;BMP180;66042;51.090;-115.340;2023-12-22T13:42:21;85759.60;;;4.10
74539;BMP180;66042;51.090;-115.340;2023-12-22T13:44:49;85759.20;;;4.10
74539;BMP180;66042;51.090;-115.340;2023-12-22T13:47:17;85755.00;;;4.00
74539;BMP180;66042;51.090;-115.340;2023-12-22T13:49:45;85747.00;;;4.00
74539;BMP180;66042;51.090;-115.340;2023-12-22T13:52:31;85726.80;;;3.92
74539;BMP180;66042;51.090;-115.340;2023-12-22T13:54:59;85733.00;;;3.90
74539;BMP180;66042;51.090;-115.340;2023-12-22T13:57:27;85735.40;;;4.00
74539;BMP180;66042;51.090;-115.340;2023-12-22T13:59:54;85734.80;;;4.00
74539;BMP180;66042;51.090;-115.340;2023-12-22T14:02:22;85743.80;;;4.00
74539;BMP180;66042;51.090;-115.340;2023-12-22T14:04:51;85734.00;;;4.00